KGSH/GSH METAR and TAF weather

Enter ICAO airport designator
Station Type Date Time Source
KGSH METAR 2022/01/23 12:30 UTC NOAA

KGSH 231230Z AUTO 06004KT 1SM -SN BR VV013 M06/M08 A2979 RMK AO2 P0002 T10611078


Station Type Date Time Source
KGSH Decoded METAR 2022/01/23 12:30 UTC NOAA

GOSHEN MUNICIPAL AIRPORT, IN, United States (KGSH) 41-32N 85-47W 252M
Jan 23, 2022 - 07:30 AM EST / 2022.01.23 1230 UTC
Wind: from the ENE (060 degrees) at 5 MPH (4 KT):0
Visibility: 1 mile(s):0
Sky conditions: obscured
Weather: light snow; mist
Precipitation last hour: 0.02 inches
Temperature: 21.0 F (-6.1 C)
Windchill: 14 F (-10 C):1
Dew Point: 18.0 F (-7.8 C)
Relative Humidity: 87%
Pressure (altimeter): 29.79 in. Hg (1008 hPa)
ob: KGSH 231230Z AUTO 06004KT 1SM -SN BR VV013 M06/M08 A2979 RMK AO2 P0002 T10611078
cycle: 12

Station Type Date Time Source
KGSH TAF UTC NOAA

Error!

Example: see airport list